createdAt,value
2018-01-17T00:00:38.163Z,2.53
2018-01-17T00:03:05.695Z,2.60
2018-01-17T00:05:33.950Z,2.30
2018-01-17T00:08:01.487Z,2.30
2018-01-17T00:10:29.190Z,1.87
2018-01-17T00:12:57.447Z,2.17
2018-01-17T00:15:24.987Z,1.80
2018-01-17T00:17:52.475Z,2.00
2018-01-17T00:20:19.967Z,1.58
2018-01-17T00:22:47.451Z,1.23
2018-01-17T00:25:14.934Z,0.85
2018-01-17T00:27:42.417Z,1.02
2018-01-17T00:30:10.897Z,1.87
2018-01-17T00:32:39.269Z,1.20
2018-01-17T00:35:07.533Z,1.10
2018-01-17T00:37:35.038Z,1.75
2018-01-17T00:40:03.295Z,1.50
2018-01-17T00:42:31.565Z,1.42
2018-01-17T00:44:59.823Z,1.33
2018-01-17T00:47:27.324Z,1.20
2018-01-17T00:49:54.818Z,1.50
2018-01-17T00:52:22.306Z,1.20
2018-01-17T00:54:50.796Z,1.10
2018-01-17T00:57:19.094Z,1.15
2018-01-17T00:59:46.600Z,1.30
2018-01-17T01:02:14.087Z,2.97
2018-01-17T01:04:42.350Z,1.10
2018-01-17T01:07:09.851Z,0.90
2018-01-17T01:09:37.355Z,0.90
2018-01-17T01:12:04.838Z,1.10
2018-01-17T01:14:33.116Z,0.70
2018-01-17T01:17:01.395Z,0.80
2018-01-17T01:19:29.651Z,0.80
2018-01-17T01:21:57.148Z,0.70
2018-01-17T01:24:24.655Z,0.70
2018-01-17T01:26:52.147Z,0.65
2018-01-17T01:29:20.399Z,0.60
2018-01-17T01:31:47.905Z,0.65
2018-01-17T01:34:15.743Z,1.00
2018-01-17T01:36:44.003Z,0.60
2018-01-17T01:39:11.511Z,0.80
2018-01-17T01:41:39.007Z,0.70
2018-01-17T01:44:06.494Z,0.60
2018-01-17T01:46:34.015Z,0.77
2018-01-17T01:49:01.527Z,0.90
2018-01-17T01:51:29.167Z,0.80
2018-01-17T01:53:57.430Z,0.88
2018-01-17T01:56:24.919Z,0.80
2018-01-17T01:58:52.564Z,0.60
2018-01-17T02:01:21.087Z,0.75
2018-01-17T02:03:48.570Z,0.85
2018-01-17T02:06:16.058Z,0.80
2018-01-17T02:08:44.319Z,0.82
2018-01-17T02:11:11.802Z,0.80
2018-01-17T02:13:40.102Z,1.00
2018-01-17T02:16:07.610Z,0.85
2018-01-17T02:18:35.098Z,0.80
2018-01-17T02:21:03.354Z,0.70
2018-01-17T02:23:30.859Z,0.70
2018-01-17T02:25:58.366Z,0.70
2018-01-17T02:28:26.042Z,0.75
2018-01-17T02:30:54.308Z,0.80
2018-01-17T02:33:21.816Z,0.62
2018-01-17T02:35:49.324Z,0.73
2018-01-17T02:38:16.825Z,0.80
2018-01-17T02:40:44.328Z,0.70
2018-01-17T02:43:12.016Z,1.00
2018-01-17T02:45:40.266Z,0.90
2018-01-17T02:48:07.951Z,1.10
2018-01-17T02:50:36.218Z,0.88
2018-01-17T02:53:03.712Z,0.80
2018-01-17T02:55:31.207Z,0.88
2018-01-17T02:57:58.711Z,1.00
2018-01-17T03:00:26.971Z,0.98
2018-01-17T03:02:54.478Z,0.93
2018-01-17T03:05:21.983Z,0.93
2018-01-17T03:07:49.490Z,0.88
2018-01-17T03:10:16.980Z,0.95
2018-01-17T03:12:44.510Z,1.02
2018-01-17T03:15:12.015Z,0.88
2018-01-17T03:17:39.511Z,1.00
2018-01-17T03:20:07.003Z,1.10
2018-01-17T03:22:34.503Z,1.05
2018-01-17T03:25:02.770Z,0.82
2018-01-17T03:27:30.268Z,1.00
2018-01-17T03:29:57.807Z,1.23
2018-01-17T03:32:26.082Z,1.10
2018-01-17T03:34:54.350Z,1.10
2018-01-17T03:37:22.627Z,0.93
2018-01-17T03:39:50.877Z,1.00
2018-01-17T03:42:18.422Z,1.00
2018-01-17T03:44:45.906Z,0.98
2018-01-17T03:47:13.405Z,0.80
2018-01-17T03:49:40.910Z,0.80
2018-01-17T03:52:08.402Z,0.80
2018-01-17T03:54:36.662Z,0.80
2018-01-17T03:57:04.922Z,0.98
2018-01-17T03:59:33.926Z,1.23
2018-01-17T04:02:01.420Z,1.80
2018-01-17T04:04:28.949Z,1.12
2018-01-17T04:06:57.218Z,0.73
2018-01-17T04:09:24.718Z,1.00
2018-01-17T04:11:52.210Z,0.98
2018-01-17T04:14:19.715Z,1.77
2018-01-17T04:16:47.970Z,3.75
2018-01-17T04:19:16.275Z,1.87
2018-01-17T04:21:43.822Z,1.20
2018-01-17T04:24:12.094Z,1.30
2018-01-17T04:26:40.436Z,1.00
2018-01-17T04:29:07.938Z,1.00
2018-01-17T04:31:36.197Z,1.33
2018-01-17T04:34:03.688Z,1.23
2018-01-17T04:36:31.219Z,1.25
2018-01-17T04:38:59.474Z,1.40
2018-01-17T04:41:26.964Z,1.50
2018-01-17T04:43:55.230Z,1.20
2018-01-17T04:46:23.486Z,1.90
2018-01-17T04:48:50.998Z,3.17
2018-01-17T04:51:18.488Z,2.33
2018-01-17T04:53:45.979Z,2.60
2018-01-17T04:56:14.242Z,4.75
2018-01-17T04:58:41.915Z,1.83
2018-01-17T05:01:10.175Z,3.12
2018-01-17T05:03:37.666Z,3.55
2018-01-17T05:06:05.919Z,1.67
2018-01-17T05:08:33.431Z,5.37
2018-01-17T05:11:00.923Z,1.33
2018-01-17T05:13:28.429Z,1.10
2018-01-17T05:15:55.926Z,1.80
2018-01-17T05:18:23.414Z,2.15
2018-01-17T05:20:51.683Z,1.20
2018-01-17T05:23:19.179Z,0.80
2018-01-17T05:25:46.666Z,0.80
2018-01-17T05:28:14.182Z,1.20
2018-01-17T05:30:42.439Z,2.00
2018-01-17T05:33:10.119Z,2.37
2018-01-17T05:35:37.658Z,1.50
2018-01-17T05:38:05.155Z,1.10
2018-01-17T05:40:32.687Z,2.25
2018-01-17T05:43:01.174Z,0.98
2018-01-17T05:45:28.675Z,1.00
2018-01-17T05:47:56.259Z,1.00
2018-01-17T05:50:23.774Z,1.02
2018-01-17T05:52:51.333Z,0.80
2018-01-17T05:55:18.843Z,0.98
2018-01-17T05:57:46.359Z,1.20
2018-01-17T06:00:13.842Z,1.12
2018-01-17T06:02:41.342Z,1.75
2018-01-17T06:05:09.620Z,4.28
2018-01-17T06:07:37.882Z,6.70
2018-01-17T06:10:06.187Z,7.53
2018-01-17T06:12:33.673Z,2.70
2018-01-17T06:15:01.166Z,1.80
2018-01-17T06:17:28.675Z,1.37
2018-01-17T06:19:56.186Z,2.28
2018-01-17T06:22:23.679Z,2.30
2018-01-17T06:24:51.170Z,1.80
2018-01-17T06:27:18.659Z,1.30
2018-01-17T06:29:46.146Z,1.50
2018-01-17T06:32:13.675Z,1.70
2018-01-17T06:34:41.161Z,5.40
2018-01-17T06:37:08.656Z,3.05
2018-01-17T06:39:36.147Z,3.60
2018-01-17T06:42:03.639Z,2.50
2018-01-17T06:44:31.140Z,4.62
2018-01-17T06:46:58.630Z,2.90
2018-01-17T06:49:26.894Z,2.80
2018-01-17T06:51:54.412Z,3.37
2018-01-17T06:54:21.902Z,3.47
2018-01-17T06:56:49.430Z,4.85
2018-01-17T06:59:16.966Z,3.25
2018-01-17T07:01:44.458Z,2.80
2018-01-17T07:04:11.980Z,2.25
2018-01-17T07:06:39.478Z,1.90
2018-01-17T07:09:06.967Z,2.12
2018-01-17T07:11:34.455Z,1.70
2018-01-17T07:14:01.954Z,2.15
2018-01-17T07:16:29.454Z,2.55
2018-01-17T07:18:57.714Z,2.40
2018-01-17T07:21:25.207Z,3.85
2018-01-17T07:23:52.776Z,2.85
2018-01-17T07:26:20.266Z,3.72
2018-01-17T07:28:47.775Z,2.35
2018-01-17T07:31:16.053Z,2.20
2018-01-17T07:33:43.538Z,1.90
2018-01-17T07:36:11.043Z,2.50
2018-01-17T07:38:39.299Z,1.95
2018-01-17T07:41:06.794Z,1.60
2018-01-17T07:43:35.067Z,1.58
2018-01-17T07:46:03.364Z,1.35
2018-01-17T07:48:30.853Z,1.23
2018-01-17T07:50:58.354Z,1.15
2018-01-17T07:53:26.610Z,1.73
2018-01-17T07:55:54.146Z,1.60
2018-01-17T07:58:21.638Z,2.05
2018-01-17T08:00:49.318Z,2.08
2018-01-17T08:03:17.591Z,2.03
2018-01-17T08:05:45.858Z,2.28
2018-01-17T08:08:14.139Z,2.58
2018-01-17T08:10:42.394Z,2.40
2018-01-17T08:13:09.886Z,2.30
2018-01-17T08:15:38.154Z,2.05
2018-01-17T08:18:06.407Z,2.25
2018-01-17T08:20:33.984Z,2.83
2018-01-17T08:23:01.474Z,2.20
2018-01-17T08:25:28.972Z,3.25
2018-01-17T08:27:56.474Z,3.10
2018-01-17T08:30:24.727Z,2.87
2018-01-17T08:32:52.215Z,1.80
2018-01-17T08:35:19.708Z,1.80
2018-01-17T08:37:47.210Z,2.00
2018-01-17T08:40:15.463Z,1.50
2018-01-17T08:42:42.952Z,2.28
2018-01-17T08:45:11.202Z,1.60
2018-01-17T08:47:38.712Z,1.10
2018-01-17T08:50:06.203Z,1.60
2018-01-17T08:52:33.693Z,1.00
2018-01-17T08:55:01.946Z,1.37
2018-01-17T08:57:29.434Z,1.87
2018-01-17T08:59:57.696Z,1.40
2018-01-17T09:02:25.186Z,1.20
2018-01-17T09:04:52.679Z,1.30
2018-01-17T09:07:20.166Z,1.40
2018-01-17T09:09:47.683Z,1.50
2018-01-17T09:12:15.170Z,1.17
2018-01-17T09:14:42.655Z,1.60
2018-01-17T09:17:10.911Z,1.33
2018-01-17T09:19:38.407Z,1.37
2018-01-17T09:22:05.899Z,1.40
2018-01-17T09:24:33.386Z,1.40
2018-01-17T09:27:00.878Z,1.62
2018-01-17T09:29:28.386Z,2.55
2018-01-17T09:31:55.874Z,1.62
2018-01-17T09:34:24.143Z,1.27
2018-01-17T09:36:51.636Z,1.30
2018-01-17T09:39:19.126Z,1.17
2018-01-17T09:41:46.626Z,1.08
2018-01-17T09:44:14.884Z,1.05
2018-01-17T09:46:42.387Z,1.10
2018-01-17T09:49:09.886Z,1.30
2018-01-17T09:51:37.422Z,1.20
2018-01-17T09:54:04.930Z,1.50
2018-01-17T09:56:33.186Z,1.37
2018-01-17T09:59:00.696Z,1.23
2018-01-17T10:01:28.184Z,1.12
2018-01-17T10:03:55.674Z,1.00
2018-01-17T10:06:23.162Z,1.00
2018-01-17T10:08:50.658Z,1.10
2018-01-17T10:11:18.162Z,1.20
2018-01-17T10:13:46.430Z,1.15
2018-01-17T10:16:13.919Z,1.15
2018-01-17T10:18:41.422Z,1.30
2018-01-17T10:21:10.634Z,0.90
2018-01-17T10:23:38.128Z,0.80
2018-01-17T10:26:05.635Z,1.35
2018-01-17T10:28:33.138Z,1.12
2018-01-17T10:31:01.407Z,1.60
2018-01-17T10:33:29.674Z,1.20
2018-01-17T10:35:57.934Z,1.25
2018-01-17T10:38:25.423Z,1.25
2018-01-17T10:40:53.694Z,1.30
2018-01-17T10:43:21.995Z,1.10
2018-01-17T10:45:49.555Z,1.23
2018-01-17T10:48:17.043Z,2.00
2018-01-17T10:50:44.542Z,2.20
2018-01-17T10:53:12.798Z,1.33
2018-01-17T10:55:40.294Z,1.00
2018-01-17T10:58:07.865Z,1.25
2018-01-17T11:00:53.190Z,1.42
2018-01-17T11:03:21.449Z,1.02
2018-01-17T11:05:48.948Z,16.40
2018-01-17T11:08:17.215Z,14.87
2018-01-17T11:10:45.482Z,4.15
2018-01-17T11:13:12.983Z,1.20
2018-01-17T11:15:40.471Z,1.20
2018-01-17T11:18:07.970Z,1.20
2018-01-17T11:20:36.454Z,18.90
2018-01-17T11:23:04.714Z,16.10
2018-01-17T11:25:32.206Z,15.23
2018-01-17T11:27:59.850Z,15.85
2018-01-17T11:30:28.158Z,16.48
2018-01-17T11:32:55.666Z,15.15
2018-01-17T11:35:23.163Z,16.37
2018-01-17T11:37:50.650Z,15.30
2018-01-17T11:40:18.159Z,19.55
2018-01-17T11:42:46.414Z,15.90
2018-01-17T11:45:13.928Z,16.67
2018-01-17T11:47:41.442Z,13.35
2018-01-17T11:50:09.730Z,11.35
2018-01-17T11:52:38.041Z,14.80
2018-01-17T11:55:05.530Z,15.43
2018-01-17T11:57:33.034Z,14.23
2018-01-17T12:00:01.295Z,16.30
2018-01-17T12:02:29.559Z,16.40
2018-01-17T12:04:57.075Z,15.30
2018-01-17T12:07:24.564Z,19.00
2018-01-17T12:09:52.076Z,16.58
2018-01-17T12:12:19.566Z,4.70
2018-01-17T12:14:47.054Z,2.10
2018-01-17T12:17:14.727Z,2.42
2018-01-17T12:19:43.023Z,1.77
2018-01-17T12:22:10.518Z,19.60
2018-01-17T12:24:38.018Z,15.18
2018-01-17T12:27:06.282Z,17.52
2018-01-17T12:29:33.787Z,14.95
2018-01-17T12:32:01.285Z,15.55
2018-01-17T12:34:28.800Z,17.35
2018-01-17T12:36:56.360Z,16.85
2018-01-17T12:39:23.898Z,14.32
2018-01-17T12:41:52.174Z,19.05
2018-01-17T12:44:20.427Z,5.40
2018-01-17T12:46:48.106Z,1.70
2018-01-17T12:49:16.582Z,1.42
2018-01-17T12:51:44.835Z,1.58
2018-01-17T12:54:12.330Z,1.30
2018-01-17T12:56:39.818Z,0.95
2018-01-17T12:59:07.320Z,0.90
2018-01-17T13:01:34.808Z,0.95
2018-01-17T13:04:02.382Z,1.10
2018-01-17T13:06:29.911Z,1.50
2018-01-17T13:08:58.179Z,1.30
2018-01-17T13:11:25.716Z,1.10
2018-01-17T13:13:53.207Z,1.80
2018-01-17T13:16:21.460Z,2.25
2018-01-17T13:18:48.967Z,1.40
2018-01-17T13:21:16.479Z,1.50
2018-01-17T13:23:44.008Z,1.90
2018-01-17T13:26:11.495Z,3.67
2018-01-17T13:28:39.022Z,1.77
2018-01-17T13:31:06.522Z,1.75
2018-01-17T13:33:34.006Z,1.77
2018-01-17T13:36:01.514Z,1.40
2018-01-17T13:38:29.042Z,1.60
2018-01-17T13:40:57.266Z,1.37
2018-01-17T13:43:26.386Z,1.80
2018-01-17T13:45:54.653Z,1.62
2018-01-17T13:48:22.918Z,2.80
2018-01-17T13:50:50.411Z,1.60
2018-01-17T13:53:17.915Z,1.30
2018-01-17T13:55:45.417Z,1.45
2018-01-17T13:58:13.671Z,1.20
2018-01-17T14:00:41.161Z,1.42
2018-01-17T14:03:08.794Z,1.80
2018-01-17T14:05:37.050Z,1.60
2018-01-17T14:08:04.538Z,1.75
2018-01-17T14:10:32.814Z,1.45
2018-01-17T14:13:01.114Z,1.40
2018-01-17T14:15:28.599Z,1.80
2018-01-17T14:17:56.091Z,2.03
2018-01-17T14:20:23.590Z,1.80
2018-01-17T14:22:51.079Z,1.80
2018-01-17T14:25:18.590Z,1.77
2018-01-17T14:27:46.088Z,2.10
2018-01-17T14:30:13.654Z,2.40
2018-01-17T14:32:41.138Z,2.03
2018-01-17T14:35:08.667Z,2.00
2018-01-17T14:37:36.163Z,2.00
2018-01-17T14:40:04.415Z,1.92
2018-01-17T14:42:31.915Z,1.73
2018-01-17T14:45:00.890Z,1.65
2018-01-17T14:47:29.248Z,2.85
2018-01-17T14:49:57.563Z,2.92
2018-01-17T14:52:25.051Z,4.68
2018-01-17T14:54:52.555Z,3.00
2018-01-17T14:57:20.226Z,3.05
2018-01-17T14:59:48.498Z,2.80
2018-01-17T15:02:16.750Z,1.92
2018-01-17T15:04:44.242Z,1.50
2018-01-17T15:07:12.510Z,1.75
2018-01-17T15:09:40.766Z,1.60
2018-01-17T15:12:08.346Z,1.60
2018-01-17T15:14:36.610Z,1.40
2018-01-17T15:17:04.153Z,2.17
2018-01-17T15:19:31.643Z,1.95
2018-01-17T15:21:59.898Z,1.87
2018-01-17T15:24:27.462Z,2.33
2018-01-17T15:26:55.730Z,2.75
2018-01-17T15:29:23.334Z,2.90
2018-01-17T15:31:50.830Z,2.25
2018-01-17T15:34:18.318Z,1.50
2018-01-17T15:36:46.603Z,1.48
2018-01-17T15:39:14.870Z,1.17
2018-01-17T15:41:42.365Z,1.42
2018-01-17T15:44:09.866Z,1.30
2018-01-17T15:46:37.367Z,1.23
2018-01-17T15:49:05.618Z,0.93
2018-01-17T15:51:33.106Z,3.05
2018-01-17T15:54:00.604Z,3.05
2018-01-17T15:56:28.137Z,2.00
2018-01-17T15:58:55.622Z,1.48
2018-01-17T16:01:23.134Z,2.03
2018-01-17T16:03:51.387Z,2.35
2018-01-17T16:06:18.884Z,1.92
2018-01-17T16:08:46.370Z,1.62
2018-01-17T16:11:13.881Z,2.12
2018-01-17T16:13:42.130Z,3.37
2018-01-17T16:16:09.622Z,2.00
2018-01-17T16:18:37.130Z,1.95
2018-01-17T16:21:04.618Z,1.55
2018-01-17T16:23:32.890Z,2.90
2018-01-17T16:26:00.385Z,3.20
2018-01-17T16:28:28.020Z,3.37
2018-01-17T16:30:57.111Z,4.12
2018-01-17T16:33:25.490Z,2.35
2018-01-17T16:35:53.747Z,2.10
2018-01-17T16:38:21.234Z,1.90
2018-01-17T16:40:49.495Z,2.33
2018-01-17T16:43:17.106Z,1.70
2018-01-17T16:45:44.602Z,1.85
2018-01-17T16:48:12.090Z,2.03
2018-01-17T16:50:40.358Z,1.55
2018-01-17T16:53:08.611Z,2.12
2018-01-17T16:55:36.098Z,2.25
2018-01-17T16:58:04.366Z,2.45
2018-01-17T17:00:32.659Z,2.70
2018-01-17T17:03:00.899Z,2.45
2018-01-17T17:05:28.383Z,2.87
2018-01-17T17:07:56.658Z,1.90
2018-01-17T17:10:24.915Z,1.55
2018-01-17T17:12:52.402Z,1.50
2018-01-17T17:15:19.907Z,2.05
2018-01-17T17:17:47.610Z,2.00
2018-01-17T17:20:15.912Z,2.20
2018-01-17T17:22:43.418Z,2.40
2018-01-17T17:25:10.911Z,2.55
2018-01-17T17:27:38.403Z,2.47
2018-01-17T17:30:05.907Z,2.37
2018-01-17T17:32:33.590Z,2.12
2018-01-17T17:35:01.868Z,2.30
2018-01-17T17:37:30.335Z,7.43
2018-01-17T17:39:58.640Z,12.23
2018-01-17T17:42:26.158Z,43.42
2018-01-17T17:57:53.091Z,2.15
2018-01-17T18:00:20.595Z,2.87
2018-01-17T18:02:48.117Z,2.10
2018-01-17T18:05:16.374Z,2.50
2018-01-17T18:07:43.871Z,2.20
2018-01-17T18:10:11.378Z,3.12
2018-01-17T18:12:38.883Z,6.25
2018-01-17T18:15:06.379Z,3.87
2018-01-17T18:17:34.072Z,4.28
2018-01-17T18:20:01.604Z,4.72
2018-01-17T18:22:29.110Z,4.55
2018-01-17T18:24:57.383Z,3.70
2018-01-17T18:27:25.642Z,3.65
2018-01-17T18:29:53.134Z,7.03
2018-01-17T18:32:20.639Z,6.57
2018-01-17T18:34:48.130Z,3.45
2018-01-17T18:37:16.431Z,6.60
2018-01-17T18:39:43.923Z,4.22
2018-01-17T18:42:11.414Z,5.75
2018-01-17T18:44:39.712Z,4.43
2018-01-17T18:47:07.961Z,6.35
2018-01-17T18:49:35.458Z,4.60
2018-01-17T18:52:02.968Z,3.70
2018-01-17T18:54:30.459Z,4.32
2018-01-17T18:56:58.755Z,3.78
2018-01-17T18:59:26.363Z,3.28
2018-01-17T19:01:54.062Z,3.60
2018-01-17T19:04:22.310Z,3.60
2018-01-17T19:06:49.813Z,2.40
2018-01-17T19:09:17.302Z,3.00
2018-01-17T19:11:44.802Z,2.75
2018-01-17T19:14:13.062Z,2.62
2018-01-17T19:16:40.554Z,4.40
2018-01-17T19:19:08.188Z,2.50
2018-01-17T19:21:35.674Z,3.35
2018-01-17T19:24:03.170Z,3.70
2018-01-17T19:26:30.658Z,3.42
2018-01-17T19:28:58.334Z,3.22
2018-01-17T19:31:26.590Z,3.50
2018-01-17T19:33:54.079Z,3.67
2018-01-17T19:36:22.355Z,5.28
2018-01-17T19:38:50.651Z,3.40
2018-01-17T19:41:18.157Z,3.42
2018-01-17T19:43:45.700Z,3.95
2018-01-17T19:46:13.202Z,3.85
2018-01-17T19:48:41.472Z,4.30
2018-01-17T19:51:09.783Z,7.18
2018-01-17T19:53:37.312Z,8.48
2018-01-17T19:56:05.875Z,3.65
2018-01-17T19:58:33.377Z,3.75
2018-01-17T20:01:00.875Z,4.18
2018-01-17T20:03:28.583Z,4.75
2018-01-17T20:05:56.136Z,3.87
2018-01-17T20:08:24.440Z,3.80
2018-01-17T20:10:51.958Z,3.20
2018-01-17T20:13:19.455Z,3.72
2018-01-17T20:15:46.991Z,5.30
2018-01-17T20:18:15.292Z,4.47
2018-01-17T20:20:42.790Z,4.40
2018-01-17T20:23:10.279Z,4.85
2018-01-17T20:25:38.550Z,5.30
2018-01-17T20:28:06.864Z,5.28
2018-01-17T20:30:34.399Z,5.10
2018-01-17T20:33:03.112Z,5.30
2018-01-17T20:35:30.634Z,5.53
2018-01-17T20:37:58.902Z,4.50
2018-01-17T20:40:27.201Z,4.40
2018-01-17T20:42:54.746Z,4.93
2018-01-17T20:45:23.016Z,5.00
2018-01-17T20:47:51.286Z,4.43
2018-01-17T20:50:18.839Z,3.87
2018-01-17T20:52:46.341Z,4.22
2018-01-17T20:55:13.837Z,5.30
2018-01-17T20:57:41.338Z,4.55
2018-01-17T21:00:09.594Z,4.50
2018-01-17T21:02:37.126Z,5.47
2018-01-17T21:05:04.630Z,5.43
2018-01-17T21:07:32.909Z,4.90
2018-01-17T21:10:01.167Z,5.20
2018-01-17T21:12:28.655Z,5.45
2018-01-17T21:14:56.403Z,5.68
2018-01-17T21:17:24.655Z,6.50
2018-01-17T21:19:52.159Z,6.55
2018-01-17T21:22:19.651Z,5.50
2018-01-17T21:24:47.146Z,5.75
2018-01-17T21:27:15.402Z,5.50
2018-01-17T21:29:42.895Z,5.62
2018-01-17T21:32:11.172Z,5.18
2018-01-17T21:34:39.430Z,5.55
2018-01-17T21:37:07.690Z,5.50
2018-01-17T21:39:35.186Z,5.55
2018-01-17T21:42:02.830Z,6.32
2018-01-17T21:44:37.151Z,6.82
2018-01-17T21:47:05.405Z,5.07
2018-01-17T21:49:32.917Z,5.05
2018-01-17T21:52:00.414Z,4.57
2018-01-17T21:54:27.950Z,5.28
2018-01-17T21:56:55.442Z,5.05
2018-01-17T21:59:22.935Z,5.10
2018-01-17T22:01:50.438Z,5.47
2018-01-17T22:04:17.946Z,5.65
2018-01-17T22:06:46.205Z,5.87
2018-01-17T22:09:14.517Z,5.50
2018-01-17T22:11:42.015Z,3.97
2018-01-17T22:14:09.502Z,5.70
2018-01-17T22:16:37.758Z,6.00
2018-01-17T22:19:05.264Z,6.05
2018-01-17T22:21:32.767Z,5.37
2018-01-17T22:24:00.258Z,5.60
2018-01-17T22:26:28.521Z,5.15
2018-01-17T22:28:56.022Z,5.35
2018-01-17T22:31:23.638Z,4.85
2018-01-17T22:33:51.123Z,5.05
2018-01-17T22:36:18.617Z,5.68
2018-01-17T22:38:46.107Z,3.85
2018-01-17T22:41:13.598Z,4.10
2018-01-17T22:43:41.110Z,3.30
2018-01-17T22:46:08.810Z,3.28
2018-01-17T22:48:37.083Z,3.10
2018-01-17T22:51:05.338Z,3.00
2018-01-17T22:53:32.854Z,3.95
2018-01-17T22:56:00.387Z,3.08
2018-01-17T22:58:27.895Z,3.60
2018-01-17T23:00:55.388Z,4.47
2018-01-17T23:03:23.704Z,4.05
2018-01-17T23:05:51.950Z,4.22
2018-01-17T23:08:20.210Z,3.40
2018-01-17T23:10:48.467Z,3.03
2018-01-17T23:13:15.971Z,4.12
2018-01-17T23:15:43.611Z,3.95
2018-01-17T23:18:12.092Z,3.45
2018-01-17T23:20:40.356Z,5.00
2018-01-17T23:23:07.868Z,4.30
2018-01-17T23:25:35.370Z,4.80
2018-01-17T23:28:02.864Z,4.07
2018-01-17T23:30:30.370Z,4.80
2018-01-17T23:32:57.862Z,3.60
2018-01-17T23:35:26.130Z,4.03
2018-01-17T23:37:54.390Z,3.72
2018-01-17T23:40:22.080Z,4.20
2018-01-17T23:42:50.335Z,3.15
2018-01-17T23:45:17.827Z,3.97
2018-01-17T23:47:45.335Z,3.90
2018-01-17T23:50:12.822Z,3.80
2018-01-17T23:52:41.094Z,3.40
2018-01-17T23:55:09.366Z,3.72
2018-01-17T23:57:36.854Z,3.10
